Airfield :
LOGIN :

Register | Disclaimer

   EN    FR    IT 

 










Legend :    VFR   Marginal VFR   IFR   Intensive IFR   Very Intensive IFR
Visi :
Ceiling :
>= 8 km
>= 3000ft
5 to 8 km
1000 to 3000 ft
1500m to 5 km
500 to 1000 ft
800 to 1500m
200 to 500 ft
< 800m
< 200 ft
Symbols :   Thunderstorms  Fog  Heavy snow  Heavy precipitations  Wind > 20 kt
SIGMETs :     Misc.  Thunderstorms  Icing  Turbulence  Mountain Waves  Volcanic Ashes







- Airport Elevation : 287 ft
- Download approach charts


LFRL - Lanveoc Poulmic

CURRENT METAR :
  • 181030Z AUTO 16017G27KT 6000 -RA FEW027/// OVC041/// ///TCU 10/09 Q1005 TEMPO 2000 RA BKN003 OVC008

EXPIRED METARs :
  • 181000Z AUTO 16017KT 6000 -RA OVC040/// ///TCU 10/08 Q1006 BECMG 16020G35KT 4000 -RADZ OVC015
  • 180930Z AUTO 16015KT 5000 -RA BR BKN041/// OVC047/// ///TCU 10/08 Q1006 BECMG 16020G35KT OVC015
  • 180900Z AUTO 15018KT 5000 RA BR BKN043/// BKN052/// OVC064/// ///TCU 10/09 Q1006 BECMG 16020G35KT NSW OVC015
  • 180830Z AUTO 16017KT 8000 -RA BKN041/// OVC047/// ///TCU 11/08 Q1006 BECMG 16020G35KT 4000 -RADZ OVC015
  • 180800Z AUTO 15021G31KT 9000 -RA BKN044/// BKN058/// BKN070/// ///TCU 11/08 Q1006 BECMG 4000 -RADZ OVC015
  • 180730Z AUTO 15023G33KT 9999 OVC042/// ///TCU 11/08 Q1006 BECMG 4000 -RADZ OVC015

TAF TAF LFRL
Valid from the 18 at 06:00 until the 19 at 06:00 UTC


180500Z 1806/1906 16020G35KT 9999 OVC045
BECMG 1809/1811 4000 -RADZ OVC015
TEMPO 1812/1816 2000 RA BKN003 OVC008
BECMG 1814/1816 22013KT
BECMG 1818/1820 9999 SCT030
TEMPO 1818/1906 3000 -SHRA SCT015TCU
PROB30
TEMPO 1900/1906 TSRA SCT015CB
No reported NOTAMs for that airfield.
2 SIGMETs reported for the Brest FIR (LFRR) :
 
Severe turbulence
LFRR SIGMET 3 VALID 181100/181300 LFPW
LFRR BREST FIR/UIR SEV TURB FCST WI N4915 W00545 - N5000 W00200 - N5000 W00100 - N4900 W00115 - N4730 W00430 - N4730 W00645 - N4915 W00545 SFC/FL060 MOV E 10KT WKN=
Severe turbulence
LFRR SIGMET 2 VALID 180700/181100 LFPW
LFRR BREST FIR/UIR SEV TURB FCST WI N4915 W00715 - N5000 W00200 - N5000 W00145 - N4445 W00715 - N4500 W00800 - N4730 W00800 - N4915 W00715 SFC/FL060 MOV E 10KT NC=



MET'MAP, your aeronautical weather chart ! - Copyright ORBIFLY December 2007 - Disclaimer

ORBIFLY MET'MAP TEAM :

Programming & Development : Alexandra Zaïnal
Concept & Development : Baudouin d'Aumeries
Co-Development & Prog : Marc-Olivier Méhu
Technical & hardware support : Manuel Goepfert

Contact : metmap@orbifly.com




SOURCES & CREDITS :

   NOAA